sensor_id;sensor_type;location;lat;lon;timestamp;P1;durP1;ratioP1;P2;durP2;ratioP2
27145;SDS011;17980;51.744;7.190;2023-06-19T00:01:48;4.33;;;3.93;;
27145;SDS011;17980;51.744;7.190;2023-06-19T00:04:16;8.50;;;4.50;;
27145;SDS011;17980;51.744;7.190;2023-06-19T00:06:52;4.40;;;4.10;;
27145;SDS011;17980;51.744;7.190;2023-06-19T00:09:20;5.93;;;4.00;;
27145;SDS011;17980;51.744;7.190;2023-06-19T00:11:48;4.40;;;3.73;;
27145;SDS011;17980;51.744;7.190;2023-06-19T00:14:15;7.63;;;3.50;;
27145;SDS011;17980;51.744;7.190;2023-06-19T00:16:52;4.63;;;4.23;;
27145;SDS011;17980;51.744;7.190;2023-06-19T00:19:19;4.30;;;3.97;;
27145;SDS011;17980;51.744;7.190;2023-06-19T00:21:46;4.20;;;3.90;;
27145;SDS011;17980;51.744;7.190;2023-06-19T00:24:14;5.30;;;4.80;;
27145;SDS011;17980;51.744;7.190;2023-06-19T00:26:51;6.60;;;4.73;;
27145;SDS011;17980;51.744;7.190;2023-06-19T00:29:18;4.30;;;3.90;;
27145;SDS011;17980;51.744;7.190;2023-06-19T00:31:45;4.30;;;3.90;;
27145;SDS011;17980;51.744;7.190;2023-06-19T00:34:22;5.07;;;4.57;;
27145;SDS011;17980;51.744;7.190;2023-06-19T00:36:50;8.10;;;4.10;;
27145;SDS011;17980;51.744;7.190;2023-06-19T00:39:30;9.73;;;4.63;;
27145;SDS011;17980;51.744;7.190;2023-06-19T00:41:57;4.37;;;4.03;;
27145;SDS011;17980;51.744;7.190;2023-06-19T00:44:24;6.00;;;3.57;;
27145;SDS011;17980;51.744;7.190;2023-06-19T00:47:02;5.37;;;4.00;;
27145;SDS011;17980;51.744;7.190;2023-06-19T00:49:30;4.77;;;4.17;;
27145;SDS011;17980;51.744;7.190;2023-06-19T00:51:58;5.90;;;4.13;;
27145;SDS011;17980;51.744;7.190;2023-06-19T00:54:25;4.40;;;4.10;;
27145;SDS011;17980;51.744;7.190;2023-06-19T00:57:03;4.57;;;4.03;;
27145;SDS011;17980;51.744;7.190;2023-06-19T00:59:31;5.37;;;4.53;;
27145;SDS011;17980;51.744;7.190;2023-06-19T01:01:58;8.50;;;4.60;;
27145;SDS011;17980;51.744;7.190;2023-06-19T01:04:26;4.60;;;4.27;;
27145;SDS011;17980;51.744;7.190;2023-06-19T01:07:04;4.93;;;3.97;;
27145;SDS011;17980;51.744;7.190;2023-06-19T01:09:38;5.43;;;4.03;;
27145;SDS011;17980;51.744;7.190;2023-06-19T01:12:15;5.00;;;4.47;;
27145;SDS011;17980;51.744;7.190;2023-06-19T01:14:46;4.60;;;4.20;;
27145;SDS011;17980;51.744;7.190;2023-06-19T01:17:25;6.50;;;3.90;;
27145;SDS011;17980;51.744;7.190;2023-06-19T01:19:54;4.37;;;4.00;;
27145;SDS011;17980;51.744;7.190;2023-06-19T01:22:24;5.67;;;3.97;;
27145;SDS011;17980;51.744;7.190;2023-06-19T01:25:02;6.33;;;4.40;;
27145;SDS011;17980;51.744;7.190;2023-06-19T01:27:30;4.43;;;4.03;;
27145;SDS011;17980;51.744;7.190;2023-06-19T01:29:58;5.67;;;4.13;;
27145;SDS011;17980;51.744;7.190;2023-06-19T01:32:30;5.57;;;4.03;;
27145;SDS011;17980;51.744;7.190;2023-06-19T01:35:08;6.37;;;4.87;;
27145;SDS011;17980;51.744;7.190;2023-06-19T01:37:38;5.07;;;3.77;;
27145;SDS011;17980;51.744;7.190;2023-06-19T01:40:09;5.30;;;4.17;;
27145;SDS011;17980;51.744;7.190;2023-06-19T01:42:50;6.70;;;3.70;;
27145;SDS011;17980;51.744;7.190;2023-06-19T01:45:20;4.37;;;3.90;;
27145;SDS011;17980;51.744;7.190;2023-06-19T01:47:57;3.70;;;3.40;;
27145;SDS011;17980;51.744;7.190;2023-06-19T01:50:24;4.00;;;3.70;;
27145;SDS011;17980;51.744;7.190;2023-06-19T01:52:52;7.37;;;3.93;;
27145;SDS011;17980;51.744;7.190;2023-06-19T01:55:29;3.93;;;3.57;;
27145;SDS011;17980;51.744;7.190;2023-06-19T01:57:57;3.80;;;3.50;;
27145;SDS011;17980;51.744;7.190;2023-06-19T02:00:35;3.83;;;3.57;;
27145;SDS011;17980;51.744;7.190;2023-06-19T02:03:03;6.33;;;3.70;;
27145;SDS011;17980;51.744;7.190;2023-06-19T02:05:42;6.37;;;3.60;;
27145;SDS011;17980;51.744;7.190;2023-06-19T02:08:09;5.97;;;3.60;;
27145;SDS011;17980;51.744;7.190;2023-06-19T02:10:46;4.00;;;3.63;;
27145;SDS011;17980;51.744;7.190;2023-06-19T02:13:13;4.57;;;3.80;;
27145;SDS011;17980;51.744;7.190;2023-06-19T02:15:50;5.13;;;3.97;;
27145;SDS011;17980;51.744;7.190;2023-06-19T02:18:18;4.30;;;3.90;;
27145;SDS011;17980;51.744;7.190;2023-06-19T02:20:45;4.10;;;3.80;;
27145;SDS011;17980;51.744;7.190;2023-06-19T02:23:12;4.13;;;3.83;;
27145;SDS011;17980;51.744;7.190;2023-06-19T02:25:49;5.83;;;4.40;;
27145;SDS011;17980;51.744;7.190;2023-06-19T02:28:16;5.93;;;4.00;;
27145;SDS011;17980;51.744;7.190;2023-06-19T02:30:44;5.00;;;4.50;;
27145;SDS011;17980;51.744;7.190;2023-06-19T02:33:11;4.53;;;4.23;;
27145;SDS011;17980;51.744;7.190;2023-06-19T02:35:48;5.63;;;3.90;;
27145;SDS011;17980;51.744;7.190;2023-06-19T02:38:15;5.17;;;4.30;;
27145;SDS011;17980;51.744;7.190;2023-06-19T02:40:44;5.40;;;4.60;;
27145;SDS011;17980;51.744;7.190;2023-06-19T02:43:21;4.60;;;4.13;;
27145;SDS011;17980;51.744;7.190;2023-06-19T02:45:48;9.30;;;4.50;;
27145;SDS011;17980;51.744;7.190;2023-06-19T02:48:25;5.13;;;3.43;;
27145;SDS011;17980;51.744;7.190;2023-06-19T02:50:53;5.43;;;4.23;;
27145;SDS011;17980;51.744;7.190;2023-06-19T02:53:20;9.37;;;4.37;;
27145;SDS011;17980;51.744;7.190;2023-06-19T02:55:57;3.90;;;3.60;;
27145;SDS011;17980;51.744;7.190;2023-06-19T02:58:25;4.37;;;4.03;;
27145;SDS011;17980;51.744;7.190;2023-06-19T03:00:53;6.40;;;4.03;;
27145;SDS011;17980;51.744;7.190;2023-06-19T03:03:20;5.20;;;4.10;;
27145;SDS011;17980;51.744;7.190;2023-06-19T03:05:57;4.27;;;3.93;;
27145;SDS011;17980;51.744;7.190;2023-06-19T03:08:26;3.60;;;3.40;;
27145;SDS011;17980;51.744;7.190;2023-06-19T03:10:54;4.67;;;4.37;;
27145;SDS011;17980;51.744;7.190;2023-06-19T03:13:21;6.23;;;4.33;;
27145;SDS011;17980;51.744;7.190;2023-06-19T03:15:58;8.17;;;4.73;;
27145;SDS011;17980;51.744;7.190;2023-06-19T03:18:25;6.70;;;4.37;;
27145;SDS011;17980;51.744;7.190;2023-06-19T03:20:52;4.90;;;4.50;;
27145;SDS011;17980;51.744;7.190;2023-06-19T03:23:20;4.07;;;3.77;;
27145;SDS011;17980;51.744;7.190;2023-06-19T03:25:56;5.93;;;3.70;;
27145;SDS011;17980;51.744;7.190;2023-06-19T03:28:24;4.63;;;3.93;;
27145;SDS011;17980;51.744;7.190;2023-06-19T03:30:51;5.13;;;4.00;;
27145;SDS011;17980;51.744;7.190;2023-06-19T03:33:18;4.43;;;4.03;;
27145;SDS011;17980;51.744;7.190;2023-06-19T03:35:55;4.27;;;3.63;;
27145;SDS011;17980;51.744;7.190;2023-06-19T03:38:23;4.83;;;3.80;;
27145;SDS011;17980;51.744;7.190;2023-06-19T03:40:50;4.13;;;3.93;;
27145;SDS011;17980;51.744;7.190;2023-06-19T03:43:27;4.57;;;3.97;;
27145;SDS011;17980;51.744;7.190;2023-06-19T03:45:54;5.10;;;3.77;;
27145;SDS011;17980;51.744;7.190;2023-06-19T03:48:34;4.03;;;3.73;;
27145;SDS011;17980;51.744;7.190;2023-06-19T03:51:01;4.10;;;3.70;;
27145;SDS011;17980;51.744;7.190;2023-06-19T03:53:29;3.40;;;3.10;;
27145;SDS011;17980;51.744;7.190;2023-06-19T03:56:06;3.97;;;3.47;;
27145;SDS011;17980;51.744;7.190;2023-06-19T03:58:33;4.17;;;3.87;;
27145;SDS011;17980;51.744;7.190;2023-06-19T04:01:00;3.37;;;3.07;;
27145;SDS011;17980;51.744;7.190;2023-06-19T04:03:28;4.50;;;3.37;;
27145;SDS011;17980;51.744;7.190;2023-06-19T04:06:05;3.70;;;3.40;;
27145;SDS011;17980;51.744;7.190;2023-06-19T04:08:32;6.73;;;3.37;;
27145;SDS011;17980;51.744;7.190;2023-06-19T04:11:10;3.50;;;3.20;;
27145;SDS011;17980;51.744;7.190;2023-06-19T04:13:37;4.30;;;2.57;;
27145;SDS011;17980;51.744;7.190;2023-06-19T04:16:05;5.83;;;2.87;;
27145;SDS011;17980;51.744;7.190;2023-06-19T04:18:48;2.67;;;2.47;;
27145;SDS011;17980;51.744;7.190;2023-06-19T04:21:15;3.27;;;2.93;;
27145;SDS011;17980;51.744;7.190;2023-06-19T04:23:52;2.33;;;2.13;;
27145;SDS011;17980;51.744;7.190;2023-06-19T04:26:19;10.07;;;2.97;;
27145;SDS011;17980;51.744;7.190;2023-06-19T04:28:59;2.40;;;2.20;;
27145;SDS011;17980;51.744;7.190;2023-06-19T04:31:26;2.80;;;2.50;;
27145;SDS011;17980;51.744;7.190;2023-06-19T04:33:54;4.67;;;2.87;;
27145;SDS011;17980;51.744;7.190;2023-06-19T04:36:31;2.70;;;2.10;;
27145;SDS011;17980;51.744;7.190;2023-06-19T04:38:58;4.87;;;2.63;;
27145;SDS011;17980;51.744;7.190;2023-06-19T04:41:35;2.43;;;2.23;;
27145;SDS011;17980;51.744;7.190;2023-06-19T04:44:04;1.97;;;1.87;;
27145;SDS011;17980;51.744;7.190;2023-06-19T04:46:32;3.03;;;2.30;;
27145;SDS011;17980;51.744;7.190;2023-06-19T04:49:08;3.83;;;1.93;;
27145;SDS011;17980;51.744;7.190;2023-06-19T04:51:36;2.83;;;2.60;;
27145;SDS011;17980;51.744;7.190;2023-06-19T04:54:03;4.67;;;2.00;;
27145;SDS011;17980;51.744;7.190;2023-06-19T04:56:40;4.63;;;2.17;;
27145;SDS011;17980;51.744;7.190;2023-06-19T04:59:07;5.33;;;2.23;;
27145;SDS011;17980;51.744;7.190;2023-06-19T05:01:44;6.63;;;2.20;;
27145;SDS011;17980;51.744;7.190;2023-06-19T05:04:12;2.63;;;2.03;;
27145;SDS011;17980;51.744;7.190;2023-06-19T05:06:39;5.70;;;2.30;;
27145;SDS011;17980;51.744;7.190;2023-06-19T05:09:08;10.17;;;2.57;;
27145;SDS011;17980;51.744;7.190;2023-06-19T05:11:45;5.13;;;2.37;;
27145;SDS011;17980;51.744;7.190;2023-06-19T05:14:12;3.03;;;2.43;;
27145;SDS011;17980;51.744;7.190;2023-06-19T05:16:40;2.10;;;1.93;;
27145;SDS011;17980;51.744;7.190;2023-06-19T05:19:17;3.70;;;2.27;;
27145;SDS011;17980;51.744;7.190;2023-06-19T05:21:44;2.63;;;2.40;;
27145;SDS011;17980;51.744;7.190;2023-06-19T05:24:21;2.03;;;1.80;;
27145;SDS011;17980;51.744;7.190;2023-06-19T05:26:48;3.90;;;1.87;;
27145;SDS011;17980;51.744;7.190;2023-06-19T05:29:15;9.43;;;1.90;;
27145;SDS011;17980;51.744;7.190;2023-06-19T05:31:52;5.87;;;1.70;;
27145;SDS011;17980;51.744;7.190;2023-06-19T05:34:20;3.30;;;1.70;;
27145;SDS011;17980;51.744;7.190;2023-06-19T05:36:48;3.40;;;1.43;;
27145;SDS011;17980;51.744;7.190;2023-06-19T05:39:15;2.67;;;1.60;;
27145;SDS011;17980;51.744;7.190;2023-06-19T05:41:52;3.73;;;1.10;;
27145;SDS011;17980;51.744;7.190;2023-06-19T05:44:19;4.63;;;1.10;;
27145;SDS011;17980;51.744;7.190;2023-06-19T05:46:47;2.87;;;1.50;;
27145;SDS011;17980;51.744;7.190;2023-06-19T05:49:14;3.17;;;1.57;;
27145;SDS011;17980;51.744;7.190;2023-06-19T05:51:51;2.40;;;1.30;;
27145;SDS011;17980;51.744;7.190;2023-06-19T05:54:18;2.73;;;1.20;;
27145;SDS011;17980;51.744;7.190;2023-06-19T05:56:55;3.33;;;1.50;;
27145;SDS011;17980;51.744;7.190;2023-06-19T05:59:22;6.60;;;1.20;;
27145;SDS011;17980;51.744;7.190;2023-06-19T06:02:02;13.03;;;1.43;;
27145;SDS011;17980;51.744;7.190;2023-06-19T06:04:30;8.37;;;1.20;;
27145;SDS011;17980;51.744;7.190;2023-06-19T06:06:57;6.10;;;1.00;;
27145;SDS011;17980;51.744;7.190;2023-06-19T06:09:34;4.53;;;1.07;;
27145;SDS011;17980;51.744;7.190;2023-06-19T06:12:01;3.83;;;1.30;;
27145;SDS011;17980;51.744;7.190;2023-06-19T06:14:39;3.60;;;1.23;;
27145;SDS011;17980;51.744;7.190;2023-06-19T06:17:07;2.23;;;0.90;;
27145;SDS011;17980;51.744;7.190;2023-06-19T06:19:45;5.00;;;1.10;;
27145;SDS011;17980;51.744;7.190;2023-06-19T06:22:12;3.53;;;0.90;;
27145;SDS011;17980;51.744;7.190;2023-06-19T06:24:39;3.20;;;1.00;;
27145;SDS011;17980;51.744;7.190;2023-06-19T06:27:07;2.30;;;0.97;;
27145;SDS011;17980;51.744;7.190;2023-06-19T06:29:46;2.97;;;0.80;;
27145;SDS011;17980;51.744;7.190;2023-06-19T06:32:13;1.10;;;0.70;;
27145;SDS011;17980;51.744;7.190;2023-06-19T06:34:41;2.97;;;0.80;;
27145;SDS011;17980;51.744;7.190;2023-06-19T06:37:08;1.83;;;0.90;;
27145;SDS011;17980;51.744;7.190;2023-06-19T06:39:45;2.87;;;1.10;;
27145;SDS011;17980;51.744;7.190;2023-06-19T06:42:13;1.80;;;1.40;;
27145;SDS011;17980;51.744;7.190;2023-06-19T06:44:40;1.00;;;0.87;;
27145;SDS011;17980;51.744;7.190;2023-06-19T06:47:07;2.30;;;1.00;;
27145;SDS011;17980;51.744;7.190;2023-06-19T06:49:45;3.37;;;0.90;;
27145;SDS011;17980;51.744;7.190;2023-06-19T06:52:13;4.97;;;0.90;;
27145;SDS011;17980;51.744;7.190;2023-06-19T06:54:40;4.73;;;1.00;;
27145;SDS011;17980;51.744;7.190;2023-06-19T06:57:07;6.70;;;1.73;;
27145;SDS011;17980;51.744;7.190;2023-06-19T06:59:44;6.00;;;1.00;;
27145;SDS011;17980;51.744;7.190;2023-06-19T07:02:11;1.87;;;1.00;;
27145;SDS011;17980;51.744;7.190;2023-06-19T07:04:39;6.63;;;1.10;;
27145;SDS011;17980;51.744;7.190;2023-06-19T07:07:06;1.87;;;1.10;;
27145;SDS011;17980;51.744;7.190;2023-06-19T07:09:43;2.87;;;1.20;;
27145;SDS011;17980;51.744;7.190;2023-06-19T07:12:12;4.27;;;1.30;;
27145;SDS011;17980;51.744;7.190;2023-06-19T07:14:39;3.17;;;1.00;;
27145;SDS011;17980;51.744;7.190;2023-06-19T07:19:43;3.60;;;1.37;;
27145;SDS011;17980;51.744;7.190;2023-06-19T07:22:11;4.03;;;1.20;;
27145;SDS011;17980;51.744;7.190;2023-06-19T07:24:40;8.60;;;1.77;;
27145;SDS011;17980;51.744;7.190;2023-06-19T07:27:17;2.77;;;1.30;;
27145;SDS011;17980;51.744;7.190;2023-06-19T07:29:45;1.40;;;1.10;;
27145;SDS011;17980;51.744;7.190;2023-06-19T07:32:22;5.03;;;1.67;;
27145;SDS011;17980;51.744;7.190;2023-06-19T07:34:50;6.00;;;1.80;;
27145;SDS011;17980;51.744;7.190;2023-06-19T07:40:04;7.83;;;1.53;;
27145;SDS011;17980;51.744;7.190;2023-06-19T07:42:33;7.13;;;1.67;;
27145;SDS011;17980;51.744;7.190;2023-06-19T07:45:01;3.33;;;1.00;;
27145;SDS011;17980;51.744;7.190;2023-06-19T07:47:29;4.07;;;1.60;;
27145;SDS011;17980;51.744;7.190;2023-06-19T07:50:06;6.43;;;0.97;;
27145;SDS011;17980;51.744;7.190;2023-06-19T07:52:35;6.00;;;0.98;;
27145;SDS011;17980;51.744;7.190;2023-06-19T07:55:02;10.20;;;1.10;;
27145;SDS011;17980;51.744;7.190;2023-06-19T07:57:30;4.83;;;1.33;;
27145;SDS011;17980;51.744;7.190;2023-06-19T08:00:09;4.40;;;1.10;;
27145;SDS011;17980;51.744;7.190;2023-06-19T08:02:38;1.97;;;1.00;;
27145;SDS011;17980;51.744;7.190;2023-06-19T08:05:07;5.90;;;1.30;;
27145;SDS011;17980;51.744;7.190;2023-06-19T08:10:13;4.87;;;1.30;;
27145;SDS011;17980;51.744;7.190;2023-06-19T08:12:41;5.67;;;1.20;;
27145;SDS011;17980;51.744;7.190;2023-06-19T08:15:09;2.57;;;1.10;;
27145;SDS011;17980;51.744;7.190;2023-06-19T08:17:39;5.97;;;2.03;;
27145;SDS011;17980;51.744;7.190;2023-06-19T08:20:16;3.07;;;1.83;;
27145;SDS011;17980;51.744;7.190;2023-06-19T08:22:43;7.17;;;2.43;;
27145;SDS011;17980;51.744;7.190;2023-06-19T08:25:10;4.03;;;1.80;;
27145;SDS011;17980;51.744;7.190;2023-06-19T08:27:38;4.13;;;1.93;;
27145;SDS011;17980;51.744;7.190;2023-06-19T08:30:15;4.37;;;2.00;;
27145;SDS011;17980;51.744;7.190;2023-06-19T08:32:43;3.53;;;1.90;;
27145;SDS011;17980;51.744;7.190;2023-06-19T08:35:14;5.97;;;1.63;;
27145;SDS011;17980;51.744;7.190;2023-06-19T08:37:41;5.27;;;2.20;;
27145;SDS011;17980;51.744;7.190;2023-06-19T08:40:19;4.23;;;2.10;;
27145;SDS011;17980;51.744;7.190;2023-06-19T08:42:46;4.70;;;1.93;;
27145;SDS011;17980;51.744;7.190;2023-06-19T08:45:13;5.63;;;1.83;;
27145;SDS011;17980;51.744;7.190;2023-06-19T08:47:50;5.33;;;1.73;;
27145;SDS011;17980;51.744;7.190;2023-06-19T08:50:24;3.10;;;1.23;;
27145;SDS011;17980;51.744;7.190;2023-06-19T08:53:01;4.53;;;1.57;;
27145;SDS011;17980;51.744;7.190;2023-06-19T08:55:29;7.23;;;1.63;;
27145;SDS011;17980;51.744;7.190;2023-06-19T08:57:57;6.97;;;1.30;;
27145;SDS011;17980;51.744;7.190;2023-06-19T09:00:33;13.33;;;1.50;;
27145;SDS011;17980;51.744;7.190;2023-06-19T09:03:02;14.27;;;1.50;;
27145;SDS011;17980;51.744;7.190;2023-06-19T09:05:30;6.90;;;2.43;;
27145;SDS011;17980;51.744;7.190;2023-06-19T09:07:57;6.83;;;1.37;;
27145;SDS011;17980;51.744;7.190;2023-06-19T09:10:34;6.33;;;1.60;;
27145;SDS011;17980;51.744;7.190;2023-06-19T09:13:02;2.23;;;1.63;;
27145;SDS011;17980;51.744;7.190;2023-06-19T09:15:30;9.30;;;1.90;;
27145;SDS011;17980;51.744;7.190;2023-06-19T09:18:01;3.63;;;1.60;;
27145;SDS011;17980;51.744;7.190;2023-06-19T09:20:39;3.77;;;1.50;;
27145;SDS011;17980;51.744;7.190;2023-06-19T09:23:10;6.57;;;2.10;;
27145;SDS011;17980;51.744;7.190;2023-06-19T09:25:44;5.67;;;2.07;;
27145;SDS011;17980;51.744;7.190;2023-06-19T09:28:17;2.90;;;1.50;;
27145;SDS011;17980;51.744;7.190;2023-06-19T09:30:55;4.33;;;1.73;;
27145;SDS011;17980;51.744;7.190;2023-06-19T09:33:24;2.27;;;1.67;;
27145;SDS011;17980;51.744;7.190;2023-06-19T09:35:52;8.97;;;1.47;;
27145;SDS011;17980;51.744;7.190;2023-06-19T09:38:21;2.37;;;1.30;;
27145;SDS011;17980;51.744;7.190;2023-06-19T09:41:00;1.93;;;1.30;;
27145;SDS011;17980;51.744;7.190;2023-06-19T09:43:30;2.17;;;1.67;;
27145;SDS011;17980;51.744;7.190;2023-06-19T09:46:00;4.47;;;1.10;;
27145;SDS011;17980;51.744;7.190;2023-06-19T09:48:30;7.50;;;1.20;;
27145;SDS011;17980;51.744;7.190;2023-06-19T09:51:09;5.23;;;0.93;;
27145;SDS011;17980;51.744;7.190;2023-06-19T09:53:38;3.13;;;1.20;;
27145;SDS011;17980;51.744;7.190;2023-06-19T09:56:16;1.60;;;1.20;;
27145;SDS011;17980;51.744;7.190;2023-06-19T09:58:47;4.90;;;1.60;;
27145;SDS011;17980;51.744;7.190;2023-06-19T10:01:25;3.50;;;1.47;;
27145;SDS011;17980;51.744;7.190;2023-06-19T10:04:05;3.50;;;1.33;;
27145;SDS011;17980;51.744;7.190;2023-06-19T10:06:41;1.70;;;1.10;;
27145;SDS011;17980;51.744;7.190;2023-06-19T10:09:18;3.80;;;1.00;;
27145;SDS011;17980;51.744;7.190;2023-06-19T10:11:47;8.47;;;1.40;;
27145;SDS011;17980;51.744;7.190;2023-06-19T10:14:17;2.97;;;1.27;;
27145;SDS011;17980;51.744;7.190;2023-06-19T10:16:44;3.73;;;1.47;;
27145;SDS011;17980;51.744;7.190;2023-06-19T10:19:22;5.37;;;1.07;;
27145;SDS011;17980;51.744;7.190;2023-06-19T10:21:51;4.07;;;1.00;;
27145;SDS011;17980;51.744;7.190;2023-06-19T10:24:19;2.87;;;1.80;;
27145;SDS011;17980;51.744;7.190;2023-06-19T10:26:57;5.23;;;1.50;;
27145;SDS011;17980;51.744;7.190;2023-06-19T10:29:25;1.50;;;1.10;;
27145;SDS011;17980;51.744;7.190;2023-06-19T10:32:03;4.80;;;1.30;;
27145;SDS011;17980;51.744;7.190;2023-06-19T10:34:34;6.47;;;1.43;;
27145;SDS011;17980;51.744;7.190;2023-06-19T10:37:11;3.17;;;1.20;;
27145;SDS011;17980;51.744;7.190;2023-06-19T10:39:38;1.47;;;1.33;;
27145;SDS011;17980;51.744;7.190;2023-06-19T10:42:21;6.40;;;1.87;;
27145;SDS011;17980;51.744;7.190;2023-06-19T10:44:48;1.57;;;1.10;;
27145;SDS011;17980;51.744;7.190;2023-06-19T10:47:25;5.40;;;1.53;;
27145;SDS011;17980;51.744;7.190;2023-06-19T10:49:54;3.40;;;1.53;;
27145;SDS011;17980;51.744;7.190;2023-06-19T10:52:31;3.47;;;1.40;;
27145;SDS011;17980;51.744;7.190;2023-06-19T10:54:59;7.07;;;1.50;;
27145;SDS011;17980;51.744;7.190;2023-06-19T10:57:30;3.47;;;2.10;;
27145;SDS011;17980;51.744;7.190;2023-06-19T11:00:08;4.43;;;1.60;;
27145;SDS011;17980;51.744;7.190;2023-06-19T11:05:15;8.73;;;1.70;;
27145;SDS011;17980;51.744;7.190;2023-06-19T11:07:43;3.73;;;1.67;;
27145;SDS011;17980;51.744;7.190;2023-06-19T11:10:19;3.30;;;1.60;;
27145;SDS011;17980;51.744;7.190;2023-06-19T11:12:56;7.73;;;1.80;;
27145;SDS011;17980;51.744;7.190;2023-06-19T11:15:31;2.80;;;1.47;;
27145;SDS011;17980;51.744;7.190;2023-06-19T11:18:03;6.33;;;1.70;;
27145;SDS011;17980;51.744;7.190;2023-06-19T11:20:43;2.83;;;1.70;;
27145;SDS011;17980;51.744;7.190;2023-06-19T11:23:12;9.50;;;1.90;;
27145;SDS011;17980;51.744;7.190;2023-06-19T11:25:49;4.20;;;2.03;;
27145;SDS011;17980;51.744;7.190;2023-06-19T11:28:16;4.63;;;1.83;;
27145;SDS011;17980;51.744;7.190;2023-06-19T11:30:57;3.93;;;1.63;;
27145;SDS011;17980;51.744;7.190;2023-06-19T11:33:27;3.60;;;2.03;;
27145;SDS011;17980;51.744;7.190;2023-06-19T11:35:58;3.53;;;1.73;;
27145;SDS011;17980;51.744;7.190;2023-06-19T11:38:35;2.50;;;1.70;;
27145;SDS011;17980;51.744;7.190;2023-06-19T11:43:41;7.30;;;2.00;;
27145;SDS011;17980;51.744;7.190;2023-06-19T11:46:09;4.07;;;1.80;;
27145;SDS011;17980;51.744;7.190;2023-06-19T11:48:46;7.20;;;1.80;;
27145;SDS011;17980;51.744;7.190;2023-06-19T11:51:13;7.40;;;2.23;;
27145;SDS011;17980;51.744;7.190;2023-06-19T11:53:50;4.40;;;2.17;;
27145;SDS011;17980;51.744;7.190;2023-06-19T11:56:17;6.10;;;1.90;;
27145;SDS011;17980;51.744;7.190;2023-06-19T11:58:45;8.00;;;2.50;;
27145;SDS011;17980;51.744;7.190;2023-06-19T12:04:02;2.60;;;2.00;;
27145;SDS011;17980;51.744;7.190;2023-06-19T12:06:33;2.87;;;2.33;;
27145;SDS011;17980;51.744;7.190;2023-06-19T12:09:11;9.80;;;2.50;;
27145;SDS011;17980;51.744;7.190;2023-06-19T12:11:46;3.07;;;2.10;;
27145;SDS011;17980;51.744;7.190;2023-06-19T12:14:16;8.07;;;2.20;;
27145;SDS011;17980;51.744;7.190;2023-06-19T12:16:53;3.57;;;1.90;;
27145;SDS011;17980;51.744;7.190;2023-06-19T12:19:21;3.03;;;2.23;;
27145;SDS011;17980;51.744;7.190;2023-06-19T12:22:05;8.43;;;2.40;;
27145;SDS011;17980;51.744;7.190;2023-06-19T12:24:33;7.77;;;2.70;;
27145;SDS011;17980;51.744;7.190;2023-06-19T12:27:01;4.17;;;2.63;;
27145;SDS011;17980;51.744;7.190;2023-06-19T12:29:37;4.90;;;2.37;;
27145;SDS011;17980;51.744;7.190;2023-06-19T12:32:06;3.03;;;2.70;;
27145;SDS011;17980;51.744;7.190;2023-06-19T12:34:34;7.77;;;2.73;;
27145;SDS011;17980;51.744;7.190;2023-06-19T12:39:30;3.77;;;2.80;;
27145;SDS011;17980;51.744;7.190;2023-06-19T12:41:58;16.40;;;3.17;;
27145;SDS011;17980;51.744;7.190;2023-06-19T12:44:26;5.73;;;2.27;;
27145;SDS011;17980;51.744;7.190;2023-06-19T12:46:53;6.47;;;2.60;;
27145;SDS011;17980;51.744;7.190;2023-06-19T12:49:30;2.77;;;2.57;;
27145;SDS011;17980;51.744;7.190;2023-06-19T12:51:57;17.20;;;3.33;;
27145;SDS011;17980;51.744;7.190;2023-06-19T12:54:25;3.80;;;2.60;;
27145;SDS011;17980;51.744;7.190;2023-06-19T12:57:02;2.77;;;2.50;;
27145;SDS011;17980;51.744;7.190;2023-06-19T12:59:31;4.03;;;2.73;;
27145;SDS011;17980;51.744;7.190;2023-06-19T13:02:08;5.03;;;2.80;;
27145;SDS011;17980;51.744;7.190;2023-06-19T13:07:11;9.00;;;2.87;;
27145;SDS011;17980;51.744;7.190;2023-06-19T13:09:39;4.60;;;2.83;;
27145;SDS011;17980;51.744;7.190;2023-06-19T13:12:18;4.93;;;2.87;;
27145;SDS011;17980;51.744;7.190;2023-06-19T13:14:45;2.70;;;2.50;;
27145;SDS011;17980;51.744;7.190;2023-06-19T13:17:13;6.63;;;2.77;;
27145;SDS011;17980;51.744;7.190;2023-06-19T13:19:50;4.27;;;3.30;;
27145;SDS011;17980;51.744;7.190;2023-06-19T13:22:17;3.23;;;2.63;;
27145;SDS011;17980;51.744;7.190;2023-06-19T13:24:44;8.80;;;2.90;;
27145;SDS011;17980;51.744;7.190;2023-06-19T13:27:12;4.20;;;3.07;;
27145;SDS011;17980;51.744;7.190;2023-06-19T13:29:49;5.30;;;3.30;;
27145;SDS011;17980;51.744;7.190;2023-06-19T13:32:16;3.40;;;3.10;;
27145;SDS011;17980;51.744;7.190;2023-06-19T13:34:43;6.03;;;3.57;;
27145;SDS011;17980;51.744;7.190;2023-06-19T13:37:20;9.90;;;3.27;;
27145;SDS011;17980;51.744;7.190;2023-06-19T13:39:48;6.03;;;3.00;;
27145;SDS011;17980;51.744;7.190;2023-06-19T13:42:25;4.60;;;3.00;;
27145;SDS011;17980;51.744;7.190;2023-06-19T13:44:53;5.40;;;2.17;;
27145;SDS011;17980;51.744;7.190;2023-06-19T13:50:12;4.90;;;3.50;;
27145;SDS011;17980;51.744;7.190;2023-06-19T13:52:49;3.10;;;2.73;;
27145;SDS011;17980;51.744;7.190;2023-06-19T13:55:16;4.67;;;3.00;;
27145;SDS011;17980;51.744;7.190;2023-06-19T13:57:45;7.63;;;2.70;;
27145;SDS011;17980;51.744;7.190;2023-06-19T14:00:13;5.93;;;3.40;;
27145;SDS011;17980;51.744;7.190;2023-06-19T14:02:42;2.80;;;2.60;;
27145;SDS011;17980;51.744;7.190;2023-06-19T14:05:21;3.33;;;2.50;;
27145;SDS011;17980;51.744;7.190;2023-06-19T14:07:49;4.23;;;2.90;;
27145;SDS011;17980;51.744;7.190;2023-06-19T14:10:26;6.63;;;2.80;;
27145;SDS011;17980;51.744;7.190;2023-06-19T14:12:53;2.97;;;2.77;;
27145;SDS011;17980;51.744;7.190;2023-06-19T14:15:30;4.60;;;2.80;;
27145;SDS011;17980;51.744;7.190;2023-06-19T14:20:34;3.50;;;2.70;;
27145;SDS011;17980;51.744;7.190;2023-06-19T14:23:01;3.63;;;2.83;;
27145;SDS011;17980;51.744;7.190;2023-06-19T14:25:38;3.03;;;2.73;;
27145;SDS011;17980;51.744;7.190;2023-06-19T14:28:15;10.63;;;2.70;;
27145;SDS011;17980;51.744;7.190;2023-06-19T14:30:45;5.40;;;2.70;;
27145;SDS011;17980;51.744;7.190;2023-06-19T14:33:13;9.03;;;2.70;;
27145;SDS011;17980;51.744;7.190;2023-06-19T14:35:50;8.17;;;2.50;;
27145;SDS011;17980;51.744;7.190;2023-06-19T14:38:17;5.17;;;2.93;;
27145;SDS011;17980;51.744;7.190;2023-06-19T14:40:45;8.63;;;3.07;;
27145;SDS011;17980;51.744;7.190;2023-06-19T14:43:13;4.37;;;2.50;;
27145;SDS011;17980;51.744;7.190;2023-06-19T14:45:50;3.13;;;2.93;;
27145;SDS011;17980;51.744;7.190;2023-06-19T14:48:18;7.97;;;2.87;;
27145;SDS011;17980;51.744;7.190;2023-06-19T14:50:55;5.90;;;3.13;;
27145;SDS011;17980;51.744;7.190;2023-06-19T14:53:22;9.87;;;3.13;;
27145;SDS011;17980;51.744;7.190;2023-06-19T14:55:59;3.03;;;2.43;;
27145;SDS011;17980;51.744;7.190;2023-06-19T14:58:26;3.10;;;2.87;;
27145;SDS011;17980;51.744;7.190;2023-06-19T15:00:54;9.83;;;2.70;;
27145;SDS011;17980;51.744;7.190;2023-06-19T15:03:31;5.93;;;2.87;;
27145;SDS011;17980;51.744;7.190;2023-06-19T15:05:59;7.77;;;3.17;;
27145;SDS011;17980;51.744;7.190;2023-06-19T15:08:36;4.00;;;2.77;;
27145;SDS011;17980;51.744;7.190;2023-06-19T15:11:04;6.73;;;2.97;;
27145;SDS011;17980;51.744;7.190;2023-06-19T15:13:32;5.80;;;2.60;;
27145;SDS011;17980;51.744;7.190;2023-06-19T15:16:09;4.57;;;3.20;;
27145;SDS011;17980;51.744;7.190;2023-06-19T15:18:37;2.77;;;2.57;;
27145;SDS011;17980;51.744;7.190;2023-06-19T15:21:14;3.93;;;2.90;;
27145;SDS011;17980;51.744;7.190;2023-06-19T15:23:42;8.73;;;2.40;;
27145;SDS011;17980;51.744;7.190;2023-06-19T15:26:19;3.50;;;2.23;;
27145;SDS011;17980;51.744;7.190;2023-06-19T15:28:46;5.17;;;3.17;;
27145;SDS011;17980;51.744;7.190;2023-06-19T15:31:25;3.53;;;3.10;;
27145;SDS011;17980;51.744;7.190;2023-06-19T15:33:52;3.03;;;2.77;;
27145;SDS011;17980;51.744;7.190;2023-06-19T15:36:29;3.17;;;2.73;;
27145;SDS011;17980;51.744;7.190;2023-06-19T15:38:59;4.80;;;2.47;;